sensor_id;sensor_type;location;lat;lon;timestamp;P1;durP1;ratioP1;P2;durP2;ratioP2
1987;SDS011;12775;46.994;15.498;2023-06-01T00:02:03;8.90;;;8.20;;
1987;SDS011;12775;46.994;15.498;2023-06-01T00:04:31;13.90;;;9.50;;
1987;SDS011;12775;46.994;15.498;2023-06-01T00:06:58;8.48;;;7.60;;
1987;SDS011;12775;46.994;15.498;2023-06-01T00:09:26;8.68;;;7.84;;
1987;SDS011;12775;46.994;15.498;2023-06-01T00:11:53;10.62;;;7.68;;
1987;SDS011;12775;46.994;15.498;2023-06-01T00:14:20;8.72;;;7.90;;
1987;SDS011;12775;46.994;15.498;2023-06-01T00:16:48;12.22;;;7.80;;
1987;SDS011;12775;46.994;15.498;2023-06-01T00:19:15;10.44;;;8.80;;
1987;SDS011;12775;46.994;15.498;2023-06-01T00:21:43;9.94;;;8.32;;
1987;SDS011;12775;46.994;15.498;2023-06-01T00:24:11;11.36;;;7.80;;
1987;SDS011;12775;46.994;15.498;2023-06-01T00:26:38;10.40;;;8.46;;
1987;SDS011;12775;46.994;15.498;2023-06-01T00:29:06;8.74;;;8.02;;
1987;SDS011;12775;46.994;15.498;2023-06-01T00:31:33;9.54;;;8.64;;
1987;SDS011;12775;46.994;15.498;2023-06-01T00:34:00;8.02;;;7.32;;
1987;SDS011;12775;46.994;15.498;2023-06-01T00:36:28;9.28;;;8.26;;
1987;SDS011;12775;46.994;15.498;2023-06-01T00:38:55;9.74;;;8.80;;
1987;SDS011;12775;46.994;15.498;2023-06-01T00:41:22;8.90;;;8.06;;
1987;SDS011;12775;46.994;15.498;2023-06-01T00:43:50;8.64;;;7.28;;
1987;SDS011;12775;46.994;15.498;2023-06-01T00:46:16;11.80;;;9.44;;
1987;SDS011;12775;46.994;15.498;2023-06-01T00:48:45;10.12;;;8.46;;
1987;SDS011;12775;46.994;15.498;2023-06-01T00:51:11;9.84;;;8.88;;
1987;SDS011;12775;46.994;15.498;2023-06-01T00:53:40;10.00;;;9.16;;
1987;SDS011;12775;46.994;15.498;2023-06-01T00:56:07;9.08;;;8.28;;
1987;SDS011;12775;46.994;15.498;2023-06-01T00:58:35;10.80;;;9.50;;
1987;SDS011;12775;46.994;15.498;2023-06-01T01:01:02;10.04;;;9.22;;
1987;SDS011;12775;46.994;15.498;2023-06-01T01:03:29;11.22;;;10.12;;
1987;SDS011;12775;46.994;15.498;2023-06-01T01:06:04;10.16;;;9.20;;
1987;SDS011;12775;46.994;15.498;2023-06-01T01:08:28;9.56;;;8.76;;
1987;SDS011;12775;46.994;15.498;2023-06-01T01:10:59;9.92;;;8.98;;
1987;SDS011;12775;46.994;15.498;2023-06-01T01:13:26;12.08;;;9.94;;
1987;SDS011;12775;46.994;15.498;2023-06-01T01:16:00;14.72;;;10.80;;
1987;SDS011;12775;46.994;15.498;2023-06-01T01:18:35;10.32;;;9.32;;
1987;SDS011;12775;46.994;15.498;2023-06-01T01:21:02;9.98;;;8.96;;
1987;SDS011;12775;46.994;15.498;2023-06-01T01:23:35;9.18;;;8.48;;
1987;SDS011;12775;46.994;15.498;2023-06-01T01:26:08;10.48;;;9.54;;
1987;SDS011;12775;46.994;15.498;2023-06-01T01:28:50;9.54;;;8.54;;
1987;SDS011;12775;46.994;15.498;2023-06-01T01:31:27;10.90;;;9.74;;
1987;SDS011;12775;46.994;15.498;2023-06-01T01:33:55;13.50;;;9.80;;
1987;SDS011;12775;46.994;15.498;2023-06-01T01:36:22;11.82;;;9.34;;
1987;SDS011;12775;46.994;15.498;2023-06-01T01:38:49;11.50;;;10.38;;
1987;SDS011;12775;46.994;15.498;2023-06-01T01:41:17;11.28;;;10.28;;
1987;SDS011;12775;46.994;15.498;2023-06-01T01:43:45;10.66;;;9.70;;
1987;SDS011;12775;46.994;15.498;2023-06-01T01:46:21;9.24;;;8.20;;
1987;SDS011;12775;46.994;15.498;2023-06-01T01:48:58;9.68;;;8.80;;
1987;SDS011;12775;46.994;15.498;2023-06-01T01:51:44;10.22;;;9.32;;
1987;SDS011;12775;46.994;15.498;2023-06-01T01:54:24;12.68;;;10.70;;
1987;SDS011;12775;46.994;15.498;2023-06-01T01:56:53;10.22;;;9.22;;
1987;SDS011;12775;46.994;15.498;2023-06-01T01:59:19;9.52;;;8.74;;
1987;SDS011;12775;46.994;15.498;2023-06-01T02:01:47;9.32;;;8.52;;
1987;SDS011;12775;46.994;15.498;2023-06-01T02:04:14;10.02;;;9.12;;
1987;SDS011;12775;46.994;15.498;2023-06-01T02:06:42;15.00;;;10.58;;
1987;SDS011;12775;46.994;15.498;2023-06-01T02:09:08;10.32;;;9.12;;
1987;SDS011;12775;46.994;15.498;2023-06-01T02:11:36;9.42;;;8.62;;
1987;SDS011;12775;46.994;15.498;2023-06-01T02:14:04;11.10;;;10.10;;
1987;SDS011;12775;46.994;15.498;2023-06-01T02:16:32;10.92;;;9.84;;
1987;SDS011;12775;46.994;15.498;2023-06-01T02:18:59;12.76;;;10.28;;
1987;SDS011;12775;46.994;15.498;2023-06-01T02:21:27;11.56;;;10.54;;
1987;SDS011;12775;46.994;15.498;2023-06-01T02:23:54;13.10;;;10.76;;
1987;SDS011;12775;46.994;15.498;2023-06-01T02:26:21;11.46;;;10.40;;
1987;SDS011;12775;46.994;15.498;2023-06-01T02:28:47;11.28;;;10.26;;
1987;SDS011;12775;46.994;15.498;2023-06-01T02:31:15;11.06;;;10.16;;
1987;SDS011;12775;46.994;15.498;2023-06-01T02:33:42;10.34;;;9.44;;
1987;SDS011;12775;46.994;15.498;2023-06-01T02:36:09;10.30;;;8.94;;
1987;SDS011;12775;46.994;15.498;2023-06-01T02:38:37;10.64;;;9.54;;
1987;SDS011;12775;46.994;15.498;2023-06-01T02:41:04;10.70;;;9.80;;
1987;SDS011;12775;46.994;15.498;2023-06-01T02:43:33;10.72;;;9.80;;
1987;SDS011;12775;46.994;15.498;2023-06-01T02:45:59;14.84;;;9.46;;
1987;SDS011;12775;46.994;15.498;2023-06-01T02:48:26;9.78;;;8.86;;
1987;SDS011;12775;46.994;15.498;2023-06-01T02:50:53;9.76;;;8.82;;
1987;SDS011;12775;46.994;15.498;2023-06-01T02:53:21;10.66;;;8.90;;
1987;SDS011;12775;46.994;15.498;2023-06-01T02:55:49;10.60;;;8.92;;
1987;SDS011;12775;46.994;15.498;2023-06-01T02:58:15;11.02;;;10.00;;
1987;SDS011;12775;46.994;15.498;2023-06-01T03:00:42;9.86;;;8.92;;
1987;SDS011;12775;46.994;15.498;2023-06-01T03:03:08;9.18;;;8.38;;
1987;SDS011;12775;46.994;15.498;2023-06-01T03:05:36;10.00;;;9.06;;
1987;SDS011;12775;46.994;15.498;2023-06-01T03:08:04;10.82;;;9.82;;
1987;SDS011;12775;46.994;15.498;2023-06-01T03:10:30;9.86;;;8.86;;
1987;SDS011;12775;46.994;15.498;2023-06-01T03:12:59;10.52;;;8.76;;
1987;SDS011;12775;46.994;15.498;2023-06-01T03:15:25;11.28;;;10.14;;
1987;SDS011;12775;46.994;15.498;2023-06-01T03:17:52;11.16;;;9.82;;
1987;SDS011;12775;46.994;15.498;2023-06-01T03:20:20;9.88;;;8.96;;
1987;SDS011;12775;46.994;15.498;2023-06-01T03:22:47;10.42;;;9.34;;
1987;SDS011;12775;46.994;15.498;2023-06-01T03:25:15;12.40;;;10.34;;
1987;SDS011;12775;46.994;15.498;2023-06-01T03:27:41;14.08;;;11.32;;
1987;SDS011;12775;46.994;15.498;2023-06-01T03:30:09;13.06;;;10.68;;
1987;SDS011;12775;46.994;15.498;2023-06-01T03:32:36;10.66;;;9.74;;
1987;SDS011;12775;46.994;15.498;2023-06-01T03:35:04;11.30;;;10.14;;
1987;SDS011;12775;46.994;15.498;2023-06-01T03:37:31;12.12;;;10.88;;
1987;SDS011;12775;46.994;15.498;2023-06-01T03:39:59;15.70;;;11.42;;
1987;SDS011;12775;46.994;15.498;2023-06-01T03:42:26;12.36;;;11.16;;
1987;SDS011;12775;46.994;15.498;2023-06-01T03:44:53;13.42;;;10.14;;
1987;SDS011;12775;46.994;15.498;2023-06-01T03:47:21;12.04;;;10.84;;
1987;SDS011;12775;46.994;15.498;2023-06-01T03:49:48;10.66;;;9.80;;
1987;SDS011;12775;46.994;15.498;2023-06-01T03:52:16;12.24;;;11.14;;
1987;SDS011;12775;46.994;15.498;2023-06-01T03:54:44;13.14;;;10.82;;
1987;SDS011;12775;46.994;15.498;2023-06-01T03:57:12;12.64;;;10.28;;
1987;SDS011;12775;46.994;15.498;2023-06-01T03:59:40;10.62;;;9.54;;
1987;SDS011;12775;46.994;15.498;2023-06-01T04:02:07;10.34;;;9.42;;
1987;SDS011;12775;46.994;15.498;2023-06-01T04:04:36;15.60;;;9.88;;
1987;SDS011;12775;46.994;15.498;2023-06-01T04:07:03;11.50;;;10.24;;
1987;SDS011;12775;46.994;15.498;2023-06-01T04:09:30;9.20;;;8.42;;
1987;SDS011;12775;46.994;15.498;2023-06-01T04:11:57;10.86;;;9.66;;
1987;SDS011;12775;46.994;15.498;2023-06-01T04:14:25;13.52;;;10.56;;
1987;SDS011;12775;46.994;15.498;2023-06-01T04:16:52;15.34;;;12.64;;
1987;SDS011;12775;46.994;15.498;2023-06-01T04:19:20;18.58;;;11.88;;
1987;SDS011;12775;46.994;15.498;2023-06-01T04:21:47;15.62;;;10.30;;
1987;SDS011;12775;46.994;15.498;2023-06-01T04:24:15;10.18;;;9.22;;
1987;SDS011;12775;46.994;15.498;2023-06-01T04:26:41;12.60;;;9.76;;
1987;SDS011;12775;46.994;15.498;2023-06-01T04:29:07;11.36;;;10.36;;
1987;SDS011;12775;46.994;15.498;2023-06-01T04:31:35;12.98;;;10.32;;
1987;SDS011;12775;46.994;15.498;2023-06-01T04:34:01;13.42;;;9.68;;
1987;SDS011;12775;46.994;15.498;2023-06-01T04:36:29;18.88;;;10.78;;
1987;SDS011;12775;46.994;15.498;2023-06-01T04:38:55;12.40;;;10.92;;
1987;SDS011;12775;46.994;15.498;2023-06-01T04:41:23;13.04;;;10.70;;
1987;SDS011;12775;46.994;15.498;2023-06-01T04:43:50;21.00;;;11.14;;
1987;SDS011;12775;46.994;15.498;2023-06-01T04:46:18;12.74;;;10.76;;
1987;SDS011;12775;46.994;15.498;2023-06-01T04:48:45;13.34;;;11.84;;
1987;SDS011;12775;46.994;15.498;2023-06-01T04:51:13;15.84;;;10.30;;
1987;SDS011;12775;46.994;15.498;2023-06-01T04:53:40;11.46;;;10.22;;
1987;SDS011;12775;46.994;15.498;2023-06-01T04:56:07;15.38;;;11.54;;
1987;SDS011;12775;46.994;15.498;2023-06-01T04:58:34;23.36;;;11.80;;
1987;SDS011;12775;46.994;15.498;2023-06-01T05:01:01;19.74;;;11.74;;
1987;SDS011;12775;46.994;15.498;2023-06-01T05:03:29;13.74;;;12.36;;
1987;SDS011;12775;46.994;15.498;2023-06-01T05:05:56;12.24;;;11.10;;
1987;SDS011;12775;46.994;15.498;2023-06-01T05:08:23;12.50;;;11.04;;
1987;SDS011;12775;46.994;15.498;2023-06-01T05:10:51;12.52;;;10.70;;
1987;SDS011;12775;46.994;15.498;2023-06-01T05:13:18;15.36;;;10.88;;
1987;SDS011;12775;46.994;15.498;2023-06-01T05:15:45;15.28;;;10.30;;
1987;SDS011;12775;46.994;15.498;2023-06-01T05:18:13;14.16;;;10.68;;
1987;SDS011;12775;46.994;15.498;2023-06-01T05:20:40;12.96;;;10.02;;
1987;SDS011;12775;46.994;15.498;2023-06-01T05:23:08;11.86;;;10.22;;
1987;SDS011;12775;46.994;15.498;2023-06-01T05:25:36;10.36;;;9.24;;
1987;SDS011;12775;46.994;15.498;2023-06-01T05:28:03;15.68;;;11.10;;
1987;SDS011;12775;46.994;15.498;2023-06-01T05:30:30;11.00;;;9.88;;
1987;SDS011;12775;46.994;15.498;2023-06-01T05:32:59;10.46;;;9.28;;
1987;SDS011;12775;46.994;15.498;2023-06-01T05:35:26;12.82;;;9.56;;
1987;SDS011;12775;46.994;15.498;2023-06-01T05:37:53;16.38;;;10.26;;
1987;SDS011;12775;46.994;15.498;2023-06-01T05:40:21;9.94;;;8.98;;
1987;SDS011;12775;46.994;15.498;2023-06-01T05:42:48;11.70;;;9.62;;
1987;SDS011;12775;46.994;15.498;2023-06-01T05:45:15;10.86;;;9.86;;
1987;SDS011;12775;46.994;15.498;2023-06-01T05:47:43;9.88;;;8.88;;
1987;SDS011;12775;46.994;15.498;2023-06-01T05:50:10;14.12;;;10.36;;
1987;SDS011;12775;46.994;15.498;2023-06-01T05:52:38;14.90;;;8.50;;
1987;SDS011;12775;46.994;15.498;2023-06-01T05:55:05;11.18;;;8.84;;
1987;SDS011;12775;46.994;15.498;2023-06-01T05:57:33;10.04;;;8.82;;
1987;SDS011;12775;46.994;15.498;2023-06-01T06:00:01;9.94;;;9.10;;
1987;SDS011;12775;46.994;15.498;2023-06-01T06:02:28;7.56;;;6.94;;
1987;SDS011;12775;46.994;15.498;2023-06-01T06:04:56;9.38;;;8.48;;
1987;SDS011;12775;46.994;15.498;2023-06-01T06:07:24;12.20;;;9.06;;
1987;SDS011;12775;46.994;15.498;2023-06-01T06:09:50;12.78;;;9.74;;
1987;SDS011;12775;46.994;15.498;2023-06-01T06:12:17;15.08;;;9.22;;
1987;SDS011;12775;46.994;15.498;2023-06-01T06:14:44;11.98;;;8.52;;
1987;SDS011;12775;46.994;15.498;2023-06-01T06:17:12;8.52;;;7.68;;
1987;SDS011;12775;46.994;15.498;2023-06-01T06:19:40;11.14;;;8.96;;
1987;SDS011;12775;46.994;15.498;2023-06-01T06:22:07;8.64;;;7.82;;
1987;SDS011;12775;46.994;15.498;2023-06-01T06:24:35;10.74;;;9.12;;
1987;SDS011;12775;46.994;15.498;2023-06-01T06:27:02;10.08;;;8.80;;
1987;SDS011;12775;46.994;15.498;2023-06-01T06:29:30;9.10;;;8.22;;
1987;SDS011;12775;46.994;15.498;2023-06-01T06:31:57;11.20;;;8.42;;
1987;SDS011;12775;46.994;15.498;2023-06-01T06:34:25;10.12;;;7.80;;
1987;SDS011;12775;46.994;15.498;2023-06-01T06:36:52;10.18;;;8.06;;
1987;SDS011;12775;46.994;15.498;2023-06-01T06:39:20;10.06;;;8.86;;
1987;SDS011;12775;46.994;15.498;2023-06-01T06:41:47;9.66;;;8.36;;
1987;SDS011;12775;46.994;15.498;2023-06-01T06:44:14;11.44;;;7.44;;
1987;SDS011;12775;46.994;15.498;2023-06-01T06:46:41;11.80;;;9.00;;
1987;SDS011;12775;46.994;15.498;2023-06-01T06:49:08;10.54;;;9.06;;
1987;SDS011;12775;46.994;15.498;2023-06-01T06:51:36;8.96;;;8.22;;
1987;SDS011;12775;46.994;15.498;2023-06-01T06:54:03;9.18;;;7.96;;
1987;SDS011;12775;46.994;15.498;2023-06-01T06:56:31;12.42;;;9.10;;
1987;SDS011;12775;46.994;15.498;2023-06-01T06:58:59;11.78;;;8.72;;
1987;SDS011;12775;46.994;15.498;2023-06-01T07:01:26;12.88;;;8.14;;
1987;SDS011;12775;46.994;15.498;2023-06-01T07:03:54;9.66;;;7.98;;
1987;SDS011;12775;46.994;15.498;2023-06-01T07:06:21;8.30;;;7.60;;
1987;SDS011;12775;46.994;15.498;2023-06-01T07:08:49;8.80;;;7.88;;
1987;SDS011;12775;46.994;15.498;2023-06-01T07:11:15;7.96;;;7.10;;
1987;SDS011;12775;46.994;15.498;2023-06-01T07:13:43;9.02;;;8.22;;
1987;SDS011;12775;46.994;15.498;2023-06-01T07:16:11;8.18;;;6.74;;
1987;SDS011;12775;46.994;15.498;2023-06-01T07:18:39;9.66;;;7.80;;
1987;SDS011;12775;46.994;15.498;2023-06-01T07:21:06;8.38;;;7.12;;
1987;SDS011;12775;46.994;15.498;2023-06-01T07:23:34;9.24;;;7.38;;
1987;SDS011;12775;46.994;15.498;2023-06-01T07:26:01;8.98;;;6.52;;
1987;SDS011;12775;46.994;15.498;2023-06-01T07:28:28;6.60;;;5.82;;
1987;SDS011;12775;46.994;15.498;2023-06-01T07:30:54;8.86;;;8.02;;
1987;SDS011;12775;46.994;15.498;2023-06-01T07:33:21;9.16;;;6.68;;
1987;SDS011;12775;46.994;15.498;2023-06-01T07:35:47;10.94;;;6.50;;
1987;SDS011;12775;46.994;15.498;2023-06-01T07:38:15;9.28;;;8.02;;
1987;SDS011;12775;46.994;15.498;2023-06-01T07:40:43;6.60;;;6.00;;
1987;SDS011;12775;46.994;15.498;2023-06-01T07:43:11;7.36;;;6.64;;
1987;SDS011;12775;46.994;15.498;2023-06-01T07:45:39;9.36;;;8.14;;
1987;SDS011;12775;46.994;15.498;2023-06-01T07:48:06;8.44;;;7.52;;
1987;SDS011;12775;46.994;15.498;2023-06-01T07:50:34;9.24;;;7.66;;
1987;SDS011;12775;46.994;15.498;2023-06-01T07:53:01;10.58;;;6.80;;
1987;SDS011;12775;46.994;15.498;2023-06-01T07:55:28;7.76;;;5.96;;
1987;SDS011;12775;46.994;15.498;2023-06-01T07:57:56;7.92;;;6.20;;
1987;SDS011;12775;46.994;15.498;2023-06-01T08:00:23;7.40;;;6.68;;
1987;SDS011;12775;46.994;15.498;2023-06-01T08:02:50;9.46;;;5.92;;
1987;SDS011;12775;46.994;15.498;2023-06-01T08:05:16;5.88;;;5.38;;
1987;SDS011;12775;46.994;15.498;2023-06-01T08:07:43;7.26;;;6.56;;
1987;SDS011;12775;46.994;15.498;2023-06-01T08:10:11;6.76;;;6.16;;
1987;SDS011;12775;46.994;15.498;2023-06-01T08:12:37;8.02;;;5.38;;
1987;SDS011;12775;46.994;15.498;2023-06-01T08:15:06;7.14;;;6.32;;
1987;SDS011;12775;46.994;15.498;2023-06-01T08:17:34;8.94;;;6.48;;
1987;SDS011;12775;46.994;15.498;2023-06-01T08:20:02;5.92;;;4.84;;
1987;SDS011;12775;46.994;15.498;2023-06-01T08:22:28;7.32;;;6.66;;
1987;SDS011;12775;46.994;15.498;2023-06-01T08:24:56;5.50;;;5.00;;
1987;SDS011;12775;46.994;15.498;2023-06-01T08:27:23;6.06;;;5.54;;
1987;SDS011;12775;46.994;15.498;2023-06-01T08:29:51;7.40;;;6.70;;
1987;SDS011;12775;46.994;15.498;2023-06-01T08:32:18;10.50;;;6.36;;
1987;SDS011;12775;46.994;15.498;2023-06-01T08:34:46;7.14;;;5.64;;
1987;SDS011;12775;46.994;15.498;2023-06-01T08:37:14;6.26;;;5.64;;
1987;SDS011;12775;46.994;15.498;2023-06-01T08:39:41;7.06;;;6.20;;
1987;SDS011;12775;46.994;15.498;2023-06-01T08:42:10;6.96;;;5.54;;
1987;SDS011;12775;46.994;15.498;2023-06-01T08:44:39;8.72;;;6.56;;
1987;SDS011;12775;46.994;15.498;2023-06-01T08:47:05;6.92;;;6.26;;
1987;SDS011;12775;46.994;15.498;2023-06-01T08:49:33;8.06;;;7.00;;
1987;SDS011;12775;46.994;15.498;2023-06-01T08:52:00;6.58;;;5.70;;
1987;SDS011;12775;46.994;15.498;2023-06-01T08:54:27;6.22;;;5.64;;
1987;SDS011;12775;46.994;15.498;2023-06-01T08:56:55;6.50;;;5.84;;
1987;SDS011;12775;46.994;15.498;2023-06-01T08:59:22;9.48;;;6.58;;
1987;SDS011;12775;46.994;15.498;2023-06-01T09:01:49;6.10;;;5.60;;
1987;SDS011;12775;46.994;15.498;2023-06-01T09:04:17;9.14;;;6.50;;
1987;SDS011;12775;46.994;15.498;2023-06-01T09:06:44;6.62;;;6.02;;
1987;SDS011;12775;46.994;15.498;2023-06-01T09:09:12;6.88;;;5.98;;
1987;SDS011;12775;46.994;15.498;2023-06-01T09:11:39;6.64;;;6.04;;
1987;SDS011;12775;46.994;15.498;2023-06-01T09:14:22;14.64;;;8.02;;
1987;SDS011;12775;46.994;15.498;2023-06-01T09:16:49;7.60;;;6.10;;
1987;SDS011;12775;46.994;15.498;2023-06-01T09:19:16;7.14;;;6.44;;
1987;SDS011;12775;46.994;15.498;2023-06-01T09:21:57;11.16;;;6.46;;
1987;SDS011;12775;46.994;15.498;2023-06-01T09:24:25;7.20;;;6.24;;
1987;SDS011;12775;46.994;15.498;2023-06-01T09:26:57;7.38;;;6.08;;
1987;SDS011;12775;46.994;15.498;2023-06-01T09:29:19;7.14;;;6.28;;
1987;SDS011;12775;46.994;15.498;2023-06-01T09:31:47;8.74;;;6.20;;
1987;SDS011;12775;46.994;15.498;2023-06-01T09:34:15;7.04;;;6.44;;
1987;SDS011;12775;46.994;15.498;2023-06-01T09:36:42;7.12;;;6.52;;
1987;SDS011;12775;46.994;15.498;2023-06-01T09:39:11;8.82;;;6.92;;
1987;SDS011;12775;46.994;15.498;2023-06-01T09:44:13;7.58;;;6.98;;
1987;SDS011;12775;46.994;15.498;2023-06-01T09:46:46;7.92;;;6.76;;
1987;SDS011;12775;46.994;15.498;2023-06-01T09:49:17;7.20;;;6.54;;
1987;SDS011;12775;46.994;15.498;2023-06-01T09:51:47;7.44;;;6.74;;
1987;SDS011;12775;46.994;15.498;2023-06-01T09:54:21;8.28;;;7.02;;
1987;SDS011;12775;46.994;15.498;2023-06-01T09:56:49;6.72;;;6.18;;
1987;SDS011;12775;46.994;15.498;2023-06-01T09:59:16;8.18;;;6.50;;
1987;SDS011;12775;46.994;15.498;2023-06-01T10:01:43;7.80;;;6.68;;
1987;SDS011;12775;46.994;15.498;2023-06-01T10:04:11;7.72;;;6.98;;
1987;SDS011;12775;46.994;15.498;2023-06-01T10:06:38;7.52;;;6.82;;
1987;SDS011;12775;46.994;15.498;2023-06-01T10:09:05;7.06;;;6.38;;
1987;SDS011;12775;46.994;15.498;2023-06-01T10:11:31;10.12;;;6.10;;
1987;SDS011;12775;46.994;15.498;2023-06-01T10:13:59;6.98;;;6.28;;
1987;SDS011;12775;46.994;15.498;2023-06-01T10:16:27;6.60;;;6.00;;
1987;SDS011;12775;46.994;15.498;2023-06-01T10:18:54;8.46;;;6.20;;
1987;SDS011;12775;46.994;15.498;2023-06-01T10:21:22;7.02;;;6.24;;
1987;SDS011;12775;46.994;15.498;2023-06-01T10:23:49;6.94;;;6.08;;
1987;SDS011;12775;46.994;15.498;2023-06-01T10:26:17;6.74;;;5.64;;
1987;SDS011;12775;46.994;15.498;2023-06-01T10:28:45;7.52;;;5.80;;
1987;SDS011;12775;46.994;15.498;2023-06-01T10:33:51;6.80;;;6.20;;
1987;SDS011;12775;46.994;15.498;2023-06-01T10:36:17;6.46;;;5.88;;
1987;SDS011;12775;46.994;15.498;2023-06-01T10:38:44;8.28;;;6.06;;
1987;SDS011;12775;46.994;15.498;2023-06-01T10:41:31;6.32;;;5.72;;
1987;SDS011;12775;46.994;15.498;2023-06-01T10:43:58;6.58;;;5.98;;
1987;SDS011;12775;46.994;15.498;2023-06-01T10:46:33;5.62;;;5.12;;
1987;SDS011;12775;46.994;15.498;2023-06-01T10:49:01;7.48;;;6.06;;
1987;SDS011;12775;46.994;15.498;2023-06-01T10:51:28;6.58;;;5.62;;
1987;SDS011;12775;46.994;15.498;2023-06-01T10:53:57;6.06;;;5.46;;
1987;SDS011;12775;46.994;15.498;2023-06-01T10:56:24;6.54;;;5.92;;
1987;SDS011;12775;46.994;15.498;2023-06-01T10:59:25;6.08;;;5.58;;
1987;SDS011;12775;46.994;15.498;2023-06-01T11:01:38;6.20;;;5.60;;
1987;SDS011;12775;46.994;15.498;2023-06-01T11:04:04;6.38;;;5.10;;
1987;SDS011;12775;46.994;15.498;2023-06-01T11:06:32;8.32;;;5.70;;
1987;SDS011;12775;46.994;15.498;2023-06-01T11:08:59;6.84;;;6.08;;
1987;SDS011;12775;46.994;15.498;2023-06-01T11:14:06;7.02;;;5.92;;
1987;SDS011;12775;46.994;15.498;2023-06-01T11:16:33;5.92;;;5.16;;
1987;SDS011;12775;46.994;15.498;2023-06-01T11:19:01;10.44;;;6.12;;
1987;SDS011;12775;46.994;15.498;2023-06-01T11:21:31;7.18;;;6.28;;
1987;SDS011;12775;46.994;15.498;2023-06-01T11:23:58;9.66;;;6.02;;
1987;SDS011;12775;46.994;15.498;2023-06-01T11:26:29;7.56;;;6.76;;
1987;SDS011;12775;46.994;15.498;2023-06-01T11:29:03;5.90;;;5.32;;
1987;SDS011;12775;46.994;15.498;2023-06-01T11:31:34;6.78;;;6.16;;
1987;SDS011;12775;46.994;15.498;2023-06-01T11:34:01;9.88;;;6.00;;
1987;SDS011;12775;46.994;15.498;2023-06-01T11:36:29;6.52;;;5.98;;
1987;SDS011;12775;46.994;15.498;2023-06-01T11:38:56;6.74;;;5.94;;
1987;SDS011;12775;46.994;15.498;2023-06-01T11:41:24;7.98;;;6.40;;
1987;SDS011;12775;46.994;15.498;2023-06-01T11:43:54;7.72;;;6.12;;
1987;SDS011;12775;46.994;15.498;2023-06-01T11:46:22;6.46;;;5.70;;
1987;SDS011;12775;46.994;15.498;2023-06-01T11:51:28;11.06;;;6.02;;
1987;SDS011;12775;46.994;15.498;2023-06-01T11:53:55;9.02;;;6.78;;
1987;SDS011;12775;46.994;15.498;2023-06-01T11:56:28;7.00;;;6.06;;
1987;SDS011;12775;46.994;15.498;2023-06-01T11:58:57;7.24;;;6.60;;
1987;SDS011;12775;46.994;15.498;2023-06-01T12:01:23;7.38;;;6.20;;
1987;SDS011;12775;46.994;15.498;2023-06-01T12:03:50;5.78;;;5.28;;
1987;SDS011;12775;46.994;15.498;2023-06-01T12:06:19;14.04;;;7.00;;
1987;SDS011;12775;46.994;15.498;2023-06-01T12:08:46;8.24;;;5.76;;
1987;SDS011;12775;46.994;15.498;2023-06-01T12:11:13;6.62;;;6.12;;
1987;SDS011;12775;46.994;15.498;2023-06-01T12:13:40;6.12;;;5.62;;
1987;SDS011;12775;46.994;15.498;2023-06-01T12:16:06;7.36;;;6.76;;
1987;SDS011;12775;46.994;15.498;2023-06-01T12:18:33;6.74;;;5.34;;
1987;SDS011;12775;46.994;15.498;2023-06-01T12:21:07;6.82;;;6.22;;
1987;SDS011;12775;46.994;15.498;2023-06-01T12:23:28;6.56;;;5.96;;
1987;SDS011;12775;46.994;15.498;2023-06-01T12:25:56;7.12;;;6.44;;
1987;SDS011;12775;46.994;15.498;2023-06-01T12:28:24;7.60;;;6.38;;
1987;SDS011;12775;46.994;15.498;2023-06-01T12:31:07;8.06;;;6.38;;
1987;SDS011;12775;46.994;15.498;2023-06-01T12:33:31;10.84;;;6.98;;
1987;SDS011;12775;46.994;15.498;2023-06-01T12:35:59;6.70;;;6.10;;
1987;SDS011;12775;46.994;15.498;2023-06-01T12:38:26;6.78;;;5.36;;
1987;SDS011;12775;46.994;15.498;2023-06-01T12:43:33;6.72;;;5.74;;
1987;SDS011;12775;46.994;15.498;2023-06-01T12:46:01;6.74;;;6.16;;
1987;SDS011;12775;46.994;15.498;2023-06-01T12:48:37;6.80;;;5.82;;
1987;SDS011;12775;46.994;15.498;2023-06-01T12:51:04;6.06;;;5.56;;
1987;SDS011;12775;46.994;15.498;2023-06-01T12:53:32;7.92;;;5.96;;
1987;SDS011;12775;46.994;15.498;2023-06-01T12:55:58;6.98;;;5.48;;
1987;SDS011;12775;46.994;15.498;2023-06-01T12:58:26;9.02;;;6.52;;
1987;SDS011;12775;46.994;15.498;2023-06-01T13:00:53;6.02;;;5.50;;
1987;SDS011;12775;46.994;15.498;2023-06-01T13:03:20;7.40;;;6.72;;
1987;SDS011;12775;46.994;15.498;2023-06-01T13:05:49;9.08;;;6.02;;
1987;SDS011;12775;46.994;15.498;2023-06-01T13:08:16;6.90;;;6.30;;
1987;SDS011;12775;46.994;15.498;2023-06-01T13:10:44;6.24;;;5.62;;
1987;SDS011;12775;46.994;15.498;2023-06-01T13:13:10;6.30;;;5.68;;
1987;SDS011;12775;46.994;15.498;2023-06-01T13:15:39;9.84;;;6.06;;
1987;SDS011;12775;46.994;15.498;2023-06-01T13:18:06;7.78;;;5.46;;
1987;SDS011;12775;46.994;15.498;2023-06-01T13:20:32;6.12;;;5.10;;
1987;SDS011;12775;46.994;15.498;2023-06-01T13:23:00;6.14;;;5.64;;
1987;SDS011;12775;46.994;15.498;2023-06-01T13:25:27;6.44;;;5.48;;
1987;SDS011;12775;46.994;15.498;2023-06-01T13:27:55;9.90;;;6.72;;
1987;SDS011;12775;46.994;15.498;2023-06-01T13:30:23;6.50;;;5.88;;
1987;SDS011;12775;46.994;15.498;2023-06-01T13:32:50;7.20;;;6.48;;
1987;SDS011;12775;46.994;15.498;2023-06-01T13:35:18;8.00;;;5.66;;
1987;SDS011;12775;46.994;15.498;2023-06-01T13:37:45;6.42;;;5.48;;
1987;SDS011;12775;46.994;15.498;2023-06-01T13:40:12;6.30;;;5.70;;
1987;SDS011;12775;46.994;15.498;2023-06-01T13:42:40;6.84;;;6.08;;
1987;SDS011;12775;46.994;15.498;2023-06-01T13:45:07;7.62;;;6.12;;
1987;SDS011;12775;46.994;15.498;2023-06-01T13:47:35;7.72;;;5.66;;
1987;SDS011;12775;46.994;15.498;2023-06-01T13:50:02;7.42;;;6.28;;
1987;SDS011;12775;46.994;15.498;2023-06-01T13:52:30;7.58;;;6.78;;
1987;SDS011;12775;46.994;15.498;2023-06-01T13:54:58;7.36;;;6.58;;
1987;SDS011;12775;46.994;15.498;2023-06-01T13:57:25;7.50;;;6.82;;
1987;SDS011;12775;46.994;15.498;2023-06-01T13:59:52;6.98;;;5.76;;
1987;SDS011;12775;46.994;15.498;2023-06-01T14:02:20;6.70;;;6.14;;
1987;SDS011;12775;46.994;15.498;2023-06-01T14:04:47;6.32;;;5.72;;
1987;SDS011;12775;46.994;15.498;2023-06-01T14:07:15;9.06;;;6.16;;
1987;SDS011;12775;46.994;15.498;2023-06-01T14:09:42;7.52;;;6.88;;
1987;SDS011;12775;46.994;15.498;2023-06-01T14:12:09;6.92;;;6.32;;
1987;SDS011;12775;46.994;15.498;2023-06-01T14:14:37;10.56;;;5.68;;
1987;SDS011;12775;46.994;15.498;2023-06-01T14:17:04;7.42;;;6.10;;
1987;SDS011;12775;46.994;15.498;2023-06-01T14:19:31;6.38;;;5.76;;
1987;SDS011;12775;46.994;15.498;2023-06-01T14:21:58;7.46;;;6.76;;
1987;SDS011;12775;46.994;15.498;2023-06-01T14:24:25;6.98;;;6.28;;
1987;SDS011;12775;46.994;15.498;2023-06-01T14:26:53;8.18;;;6.72;;
1987;SDS011;12775;46.994;15.498;2023-06-01T14:29:20;8.00;;;6.60;;
1987;SDS011;12775;46.994;15.498;2023-06-01T14:31:47;10.82;;;6.68;;
1987;SDS011;12775;46.994;15.498;2023-06-01T14:34:15;7.78;;;6.10;;
1987;SDS011;12775;46.994;15.498;2023-06-01T14:36:42;7.64;;;6.76;;
1987;SDS011;12775;46.994;15.498;2023-06-01T14:39:09;9.10;;;7.10;;
1987;SDS011;12775;46.994;15.498;2023-06-01T14:41:37;5.64;;;5.14;;
1987;SDS011;12775;46.994;15.498;2023-06-01T14:44:04;7.86;;;6.94;;
1987;SDS011;12775;46.994;15.498;2023-06-01T14:46:32;7.84;;;7.12;;
1987;SDS011;12775;46.994;15.498;2023-06-01T14:49:00;8.00;;;6.36;;
1987;SDS011;12775;46.994;15.498;2023-06-01T14:51:27;6.92;;;6.34;;
1987;SDS011;12775;46.994;15.498;2023-06-01T14:53:53;6.92;;;6.16;;
1987;SDS011;12775;46.994;15.498;2023-06-01T14:56:20;13.40;;;8.36;;
1987;SDS011;12775;46.994;15.498;2023-06-01T14:58:47;6.82;;;6.12;;